createdAt,value
2018-06-21T00:00:01.113Z,19.13
2018-06-21T00:01:01.043Z,19.14
2018-06-21T00:02:00.973Z,19.17
2018-06-21T00:03:00.903Z,19.09
2018-06-21T00:04:00.832Z,19.11
2018-06-21T00:05:00.762Z,19.11
2018-06-21T00:06:00.693Z,19.01
2018-06-21T00:07:00.624Z,19.11
2018-06-21T00:08:00.554Z,19.11
2018-06-21T00:09:00.484Z,19.11
2018-06-21T00:10:00.419Z,19.11
2018-06-21T00:11:00.345Z,19.09
2018-06-21T00:12:00.274Z,19.11
2018-06-21T00:13:00.205Z,19.09
2018-06-21T00:14:00.133Z,18.99
2018-06-21T00:15:00.071Z,19.06
2018-06-21T00:15:59.997Z,18.98
2018-06-21T00:16:59.925Z,18.92
2018-06-21T00:17:59.855Z,18.80
2018-06-21T00:18:59.786Z,18.77
2018-06-21T00:19:59.716Z,18.79
2018-06-21T00:20:59.644Z,18.84
2018-06-21T00:21:59.575Z,18.92
2018-06-21T00:22:59.506Z,18.90
2018-06-21T00:23:59.586Z,18.92
2018-06-21T00:24:59.364Z,18.84
2018-06-21T00:25:59.304Z,18.79
2018-06-21T00:26:59.225Z,18.74
2018-06-21T00:27:59.156Z,18.83
2018-06-21T00:28:59.086Z,18.76
2018-06-21T00:29:59.015Z,18.74
2018-06-21T00:30:58.949Z,18.68
2018-06-21T00:31:58.876Z,18.71
2018-06-21T00:32:58.805Z,18.65
2018-06-21T00:33:58.740Z,18.61
2018-06-21T00:34:58.666Z,18.62
2018-06-21T00:35:58.598Z,18.57
2018-06-21T00:36:58.524Z,18.59
2018-06-21T00:37:58.455Z,18.47
2018-06-21T00:38:58.384Z,18.53
2018-06-21T00:39:58.314Z,18.64
2018-06-21T00:40:58.244Z,18.55
2018-06-21T00:41:58.178Z,18.53
2018-06-21T00:42:58.106Z,18.52
2018-06-21T00:43:58.035Z,18.57
2018-06-21T00:44:57.964Z,18.55
2018-06-21T00:45:57.894Z,18.55
2018-06-21T00:46:57.824Z,18.61
2018-06-21T00:47:57.755Z,18.59
2018-06-21T00:48:57.686Z,18.57
2018-06-21T00:49:57.614Z,18.59
2018-06-21T00:50:57.545Z,18.57
2018-06-21T00:51:57.475Z,18.64
2018-06-21T00:52:57.407Z,18.65
2018-06-21T00:53:57.335Z,18.65
2018-06-21T00:54:57.265Z,18.69
2018-06-21T00:55:57.194Z,18.65
2018-06-21T00:56:57.123Z,18.68
2018-06-21T00:57:57.053Z,18.68
2018-06-21T00:58:56.985Z,18.71
2018-06-21T00:59:56.913Z,18.71
2018-06-21T01:00:56.844Z,18.67
2018-06-21T01:01:56.780Z,18.69
2018-06-21T01:02:56.704Z,18.67
2018-06-21T01:03:56.635Z,18.68
2018-06-21T01:04:56.562Z,18.73
2018-06-21T01:05:56.493Z,18.74
2018-06-21T01:06:56.422Z,18.74
2018-06-21T01:07:56.353Z,18.76
2018-06-21T01:08:56.285Z,18.80
2018-06-21T01:09:56.212Z,18.74
2018-06-21T01:10:56.143Z,18.67
2018-06-21T01:11:56.073Z,18.80
2018-06-21T01:12:56.002Z,18.67
2018-06-21T01:13:55.932Z,18.73
2018-06-21T01:14:55.863Z,18.71
2018-06-21T01:15:55.794Z,18.76
2018-06-21T01:16:55.722Z,18.80
2018-06-21T01:17:55.651Z,18.82
2018-06-21T01:18:55.584Z,18.82
2018-06-21T01:19:55.514Z,18.79
2018-06-21T01:20:55.440Z,18.73
2018-06-21T01:21:55.371Z,18.83
2018-06-21T01:22:55.301Z,18.86
2018-06-21T01:23:55.232Z,18.89
2018-06-21T01:24:55.161Z,18.69
2018-06-21T01:25:55.091Z,18.74
2018-06-21T01:27:05.287Z,18.65
2018-06-21T01:27:54.951Z,18.67
2018-06-21T01:28:55.635Z,18.58
2018-06-21T01:29:54.810Z,18.50
2018-06-21T01:30:54.740Z,18.55
2018-06-21T01:31:54.670Z,18.53
2018-06-21T01:32:54.600Z,18.57
2018-06-21T01:33:54.532Z,18.61
2018-06-21T01:34:54.460Z,18.49
2018-06-21T01:35:54.390Z,18.43
2018-06-21T01:36:54.319Z,18.47
2018-06-21T01:37:54.250Z,18.47
2018-06-21T01:38:54.179Z,18.55
2018-06-21T01:39:54.109Z,18.53
2018-06-21T01:40:54.038Z,18.46
2018-06-21T01:41:53.968Z,18.50
2018-06-21T01:42:53.898Z,18.49
2018-06-21T01:43:53.829Z,18.52
2018-06-21T01:44:53.757Z,18.52
2018-06-21T01:45:53.687Z,18.64
2018-06-21T01:46:53.617Z,18.64
2018-06-21T01:47:53.547Z,18.58
2018-06-21T01:48:53.476Z,18.53
2018-06-21T01:49:53.406Z,18.52
2018-06-21T01:50:53.336Z,18.62
2018-06-21T01:51:53.267Z,18.57
2018-06-21T01:52:53.195Z,18.65
2018-06-21T01:53:53.125Z,18.74
2018-06-21T01:54:53.055Z,18.68
2018-06-21T01:55:52.986Z,18.82
2018-06-21T01:56:52.914Z,18.69
2018-06-21T01:57:52.845Z,18.71
2018-06-21T01:58:52.775Z,18.73
2018-06-21T01:59:52.705Z,18.71
2018-06-21T02:00:52.634Z,18.59
2018-06-21T02:01:52.564Z,18.52
2018-06-21T02:02:52.495Z,18.46
2018-06-21T02:03:52.426Z,18.43
2018-06-21T02:04:52.353Z,18.42
2018-06-21T02:05:52.283Z,18.32
2018-06-21T02:06:52.214Z,18.19
2018-06-21T02:07:52.144Z,18.27
2018-06-21T02:08:52.072Z,18.19
2018-06-21T02:09:52.002Z,18.29
2018-06-21T02:10:51.935Z,18.18
2018-06-21T02:11:51.862Z,18.11
2018-06-21T02:12:51.791Z,18.22
2018-06-21T02:13:51.721Z,18.19
2018-06-21T02:14:51.651Z,18.18
2018-06-21T02:15:51.581Z,18.07
2018-06-21T02:16:51.509Z,18.18
2018-06-21T02:17:51.440Z,18.16
2018-06-21T02:18:51.369Z,18.16
2018-06-21T02:19:51.299Z,18.11
2018-06-21T02:20:51.231Z,18.11
2018-06-21T02:21:51.158Z,18.11
2018-06-21T02:22:51.089Z,18.09
2018-06-21T02:23:51.017Z,18.06
2018-06-21T02:24:50.948Z,18.07
2018-06-21T02:25:50.878Z,18.03
2018-06-21T02:26:50.806Z,18.14
2018-06-21T02:27:50.885Z,18.19
2018-06-21T02:28:50.665Z,18.16
2018-06-21T02:29:50.595Z,18.21
2018-06-21T02:30:50.526Z,18.18
2018-06-21T02:31:50.459Z,18.16
2018-06-21T02:32:50.388Z,18.21
2018-06-21T02:33:50.315Z,18.37
2018-06-21T02:34:50.245Z,18.49
2018-06-21T02:35:50.173Z,18.31
2018-06-21T02:36:50.118Z,18.40
2018-06-21T02:37:50.033Z,18.40
2018-06-21T02:38:49.962Z,18.40
2018-06-21T02:39:49.893Z,18.40
2018-06-21T02:40:49.824Z,18.37
2018-06-21T02:41:49.751Z,18.46
2018-06-21T02:42:49.688Z,18.40
2018-06-21T02:43:49.614Z,18.32
2018-06-21T02:44:49.541Z,18.37
2018-06-21T02:45:49.472Z,18.40
2018-06-21T02:46:49.404Z,18.43
2018-06-21T02:47:49.330Z,18.53
2018-06-21T02:48:49.260Z,18.57
2018-06-21T02:49:49.189Z,18.46
2018-06-21T02:50:49.121Z,18.39
2018-06-21T02:51:49.050Z,18.46
2018-06-21T02:52:48.979Z,18.57
2018-06-21T02:53:48.908Z,18.53
2018-06-21T02:54:48.841Z,18.57
2018-06-21T02:55:48.770Z,18.52
2018-06-21T02:56:48.697Z,18.65
2018-06-21T02:57:48.628Z,18.67
2018-06-21T02:58:48.565Z,18.64
2018-06-21T02:59:48.488Z,18.64
2018-06-21T03:00:48.419Z,18.73
2018-06-21T03:01:48.347Z,18.71
2018-06-21T03:02:48.277Z,18.68
2018-06-21T03:03:48.210Z,18.80
2018-06-21T03:04:48.137Z,18.69
2018-06-21T03:05:48.066Z,18.82
2018-06-21T03:06:47.997Z,18.74
2018-06-21T03:07:47.927Z,18.64
2018-06-21T03:08:47.856Z,18.77
2018-06-21T03:09:47.787Z,18.83
2018-06-21T03:10:47.718Z,18.80
2018-06-21T03:11:47.651Z,18.82
2018-06-21T03:12:47.575Z,18.77
2018-06-21T03:13:47.505Z,18.80
2018-06-21T03:14:47.437Z,18.90
2018-06-21T03:15:47.367Z,18.84
2018-06-21T03:16:47.297Z,18.87
2018-06-21T03:17:47.225Z,18.89
2018-06-21T03:18:47.156Z,18.89
2018-06-21T03:19:47.087Z,18.92
2018-06-21T03:20:47.016Z,18.94
2018-06-21T03:21:46.947Z,18.95
2018-06-21T03:22:46.877Z,19.01
2018-06-21T03:23:46.806Z,18.92
2018-06-21T03:24:46.736Z,18.95
2018-06-21T03:25:46.666Z,19.01
2018-06-21T03:26:46.597Z,18.99
2018-06-21T03:27:46.530Z,19.05
2018-06-21T03:28:46.455Z,18.95
2018-06-21T03:29:46.385Z,18.95
2018-06-21T03:30:46.316Z,19.01
2018-06-21T03:31:46.246Z,18.97
2018-06-21T03:32:46.176Z,18.86
2018-06-21T03:33:46.107Z,18.79
2018-06-21T03:34:46.037Z,18.90
2018-06-21T03:35:45.969Z,18.90
2018-06-21T03:36:45.896Z,18.79
2018-06-21T03:37:45.826Z,18.79
2018-06-21T03:38:45.757Z,18.77
2018-06-21T03:39:45.687Z,18.67
2018-06-21T03:40:45.617Z,18.71
2018-06-21T03:41:45.546Z,18.79
2018-06-21T03:42:45.477Z,18.73
2018-06-21T03:43:45.406Z,18.77
2018-06-21T03:44:45.335Z,18.77
2018-06-21T03:45:45.266Z,18.76
2018-06-21T03:46:45.196Z,18.73
2018-06-21T03:47:45.128Z,18.73
2018-06-21T03:48:45.057Z,18.68
2018-06-21T03:49:44.985Z,18.67
2018-06-21T03:50:44.916Z,18.67
2018-06-21T03:51:44.845Z,18.67
2018-06-21T03:52:44.776Z,18.69
2018-06-21T03:53:44.706Z,18.71
2018-06-21T03:54:44.635Z,18.79
2018-06-21T03:55:44.566Z,18.77
2018-06-21T03:56:44.496Z,18.64
2018-06-21T03:57:44.425Z,18.69
2018-06-21T03:58:44.355Z,18.67
2018-06-21T03:59:44.293Z,18.69
2018-06-21T04:00:44.216Z,18.80
2018-06-21T04:01:44.144Z,18.87
2018-06-21T04:02:44.076Z,18.90
2018-06-21T04:03:44.005Z,18.92
2018-06-21T04:04:43.936Z,18.90
2018-06-21T04:05:43.865Z,18.90
2018-06-21T04:06:43.802Z,18.90
2018-06-21T04:07:43.725Z,18.94
2018-06-21T04:08:43.655Z,18.89
2018-06-21T04:09:43.585Z,18.98
2018-06-21T04:10:43.516Z,18.94
2018-06-21T04:11:43.445Z,18.94
2018-06-21T04:12:43.374Z,19.05
2018-06-21T04:13:43.306Z,19.01
2018-06-21T04:14:43.235Z,19.08
2018-06-21T04:15:43.166Z,18.99
2018-06-21T04:16:43.095Z,19.14
2018-06-21T04:17:43.032Z,19.09
2018-06-21T04:18:42.961Z,19.14
2018-06-21T04:19:42.886Z,19.14
2018-06-21T04:20:42.819Z,19.15
2018-06-21T04:21:42.746Z,19.15
2018-06-21T04:22:42.676Z,19.09
2018-06-21T04:23:42.607Z,19.23
2018-06-21T04:24:42.540Z,19.20
2018-06-21T04:25:42.467Z,19.25
2018-06-21T04:26:42.397Z,19.21
2018-06-21T04:27:42.329Z,19.24
2018-06-21T04:28:42.257Z,19.09
2018-06-21T04:29:42.190Z,19.17
2018-06-21T04:30:42.119Z,19.14
2018-06-21T04:31:42.049Z,19.13
2018-06-21T04:32:41.978Z,19.21
2018-06-21T04:33:41.908Z,19.09
2018-06-21T04:34:41.839Z,19.25
2018-06-21T04:35:41.768Z,19.25
2018-06-21T04:36:41.699Z,19.21
2018-06-21T04:37:41.629Z,19.18
2018-06-21T04:38:41.559Z,19.21
2018-06-21T04:39:41.490Z,19.27
2018-06-21T04:40:41.420Z,19.24
2018-06-21T04:41:41.351Z,19.23
2018-06-21T04:42:41.283Z,19.35
2018-06-21T04:43:41.211Z,19.24
2018-06-21T04:44:41.146Z,19.36
2018-06-21T04:45:41.072Z,19.31
2018-06-21T04:46:41.004Z,19.46
2018-06-21T04:47:40.933Z,19.40
2018-06-21T04:48:40.862Z,19.58
2018-06-21T04:49:40.793Z,19.60
2018-06-21T04:50:40.723Z,19.72
2018-06-21T04:51:40.658Z,19.68
2018-06-21T04:52:40.606Z,19.60
2018-06-21T04:53:40.518Z,19.72
2018-06-21T04:54:40.446Z,19.72
2018-06-21T04:55:40.383Z,19.95
2018-06-21T04:56:40.309Z,19.90
2018-06-21T04:57:40.238Z,20.01
2018-06-21T04:58:40.172Z,19.93
2018-06-21T04:59:40.100Z,19.93
2018-06-21T05:00:40.039Z,20.01
2018-06-21T05:01:39.963Z,20.06
2018-06-21T05:02:39.892Z,20.20
2018-06-21T05:03:39.824Z,20.28
2018-06-21T05:04:39.754Z,20.27
2018-06-21T05:05:39.684Z,20.37
2018-06-21T05:06:39.618Z,20.46
2018-06-21T05:07:39.547Z,20.47
2018-06-21T05:08:39.479Z,20.51
2018-06-21T05:09:39.409Z,20.51
2018-06-21T05:10:39.341Z,20.47
2018-06-21T05:11:39.271Z,20.37
2018-06-21T05:12:39.201Z,20.42
2018-06-21T05:13:39.132Z,20.49
2018-06-21T05:14:39.064Z,20.51
2018-06-21T05:15:38.995Z,20.50
2018-06-21T05:16:38.925Z,20.56
2018-06-21T05:17:38.855Z,20.61
2018-06-21T05:18:38.787Z,20.71
2018-06-21T05:19:38.719Z,20.74
2018-06-21T05:20:38.652Z,20.75
2018-06-21T05:21:38.580Z,20.84
2018-06-21T05:22:38.512Z,20.84
2018-06-21T05:23:38.444Z,20.82
2018-06-21T05:24:38.376Z,20.84
2018-06-21T05:25:38.308Z,20.89
2018-06-21T05:26:38.238Z,20.91
2018-06-21T05:27:38.168Z,20.96
2018-06-21T05:28:38.101Z,21.11
2018-06-21T05:29:38.033Z,21.06
2018-06-21T05:30:37.963Z,21.08
2018-06-21T05:31:37.899Z,21.04
2018-06-21T05:32:37.825Z,21.19
2018-06-21T05:33:37.758Z,21.14
2018-06-21T05:34:37.688Z,21.27
2018-06-21T05:35:37.619Z,21.33
2018-06-21T05:36:37.552Z,21.41
2018-06-21T05:37:37.483Z,21.38
2018-06-21T05:38:37.415Z,21.49
2018-06-21T05:39:37.346Z,21.46
2018-06-21T05:40:37.277Z,21.54
2018-06-21T05:41:37.208Z,21.54
2018-06-21T05:42:37.141Z,21.48
2018-06-21T05:43:37.072Z,21.59
2018-06-21T05:44:37.004Z,21.67
2018-06-21T05:45:36.936Z,21.64
2018-06-21T05:46:36.869Z,21.79
2018-06-21T05:47:36.799Z,21.79
2018-06-21T05:48:36.730Z,21.82
2018-06-21T05:49:36.661Z,21.84
2018-06-21T05:50:36.595Z,22.01
2018-06-21T05:51:36.526Z,22.01
2018-06-21T05:52:36.457Z,22.05
2018-06-21T05:53:36.389Z,22.13
2018-06-21T05:54:36.322Z,22.16
2018-06-21T05:55:36.253Z,22.23
2018-06-21T05:56:36.222Z,22.28
2018-06-21T05:57:36.117Z,22.37
2018-06-21T05:58:36.051Z,22.34
2018-06-21T05:59:35.983Z,22.42
2018-06-21T06:00:35.910Z,22.56
2018-06-21T06:01:35.843Z,22.63
2018-06-21T06:02:35.776Z,22.49
2018-06-21T06:03:35.711Z,22.54
2018-06-21T06:04:35.639Z,22.68
2018-06-21T06:05:35.571Z,22.52
2018-06-21T06:06:35.503Z,22.65
2018-06-21T06:07:35.440Z,22.69
2018-06-21T06:08:35.383Z,22.71
2018-06-21T06:09:35.297Z,22.65
2018-06-21T06:10:35.230Z,22.65
2018-06-21T06:11:35.162Z,22.75
2018-06-21T06:12:35.094Z,22.77
2018-06-21T06:13:35.025Z,22.79
2018-06-21T06:14:34.957Z,22.77
2018-06-21T06:15:34.889Z,22.83
2018-06-21T06:16:34.821Z,22.83
2018-06-21T06:17:34.752Z,22.83
2018-06-21T06:18:34.684Z,22.90
2018-06-21T06:19:34.616Z,22.96
2018-06-21T06:20:34.547Z,23.02
2018-06-21T06:21:34.479Z,23.15
2018-06-21T06:22:34.411Z,23.11
2018-06-21T06:23:34.343Z,23.31
2018-06-21T06:24:34.275Z,23.31
2018-06-21T06:25:34.210Z,23.20
2018-06-21T06:26:34.138Z,23.09
2018-06-21T06:27:34.076Z,23.12
2018-06-21T06:28:34.012Z,23.20
2018-06-21T06:29:33.933Z,23.31
2018-06-21T06:30:33.866Z,23.22
2018-06-21T06:31:33.798Z,23.07
2018-06-21T06:32:33.728Z,23.17
2018-06-21T06:33:33.662Z,23.22
2018-06-21T06:34:33.602Z,23.17
2018-06-21T06:35:33.525Z,23.18
2018-06-21T06:36:33.458Z,23.26
2018-06-21T06:37:33.388Z,23.24
2018-06-21T06:38:33.323Z,23.23
2018-06-21T06:39:33.257Z,23.27
2018-06-21T06:40:33.186Z,23.29
2018-06-21T06:41:33.121Z,23.45
2018-06-21T06:42:33.050Z,23.43
2018-06-21T06:43:32.981Z,23.52
2018-06-21T06:44:32.913Z,23.40
2018-06-21T06:45:32.845Z,23.43
2018-06-21T06:46:32.777Z,23.45
2018-06-21T06:47:32.710Z,23.42
2018-06-21T06:48:32.645Z,23.27
2018-06-21T06:49:32.572Z,23.42
2018-06-21T06:50:32.507Z,23.38
2018-06-21T06:51:32.438Z,23.45
2018-06-21T06:52:32.367Z,23.49
2018-06-21T06:53:32.301Z,23.60
2018-06-21T06:54:32.321Z,23.58
2018-06-21T06:55:32.165Z,23.64
2018-06-21T06:56:32.097Z,23.72
2018-06-21T06:57:32.031Z,23.64
2018-06-21T06:58:31.962Z,23.71
2018-06-21T06:59:31.895Z,23.75
2018-06-21T07:00:31.825Z,23.71
2018-06-21T07:01:31.761Z,23.67
2018-06-21T07:02:31.691Z,23.56
2018-06-21T07:03:31.623Z,23.56
2018-06-21T07:04:31.555Z,23.55
2018-06-21T07:05:31.486Z,23.55
2018-06-21T07:06:31.418Z,23.56
2018-06-21T07:07:31.351Z,23.56
2018-06-21T07:08:31.338Z,23.48
2018-06-21T07:09:31.215Z,23.55
2018-06-21T07:10:31.148Z,23.55
2018-06-21T07:11:31.080Z,23.53
2018-06-21T07:12:31.011Z,23.45
2018-06-21T07:13:30.943Z,23.58
2018-06-21T07:14:30.945Z,23.61
2018-06-21T07:15:30.806Z,23.75
2018-06-21T07:16:30.739Z,23.78
2018-06-21T07:17:30.674Z,23.89
2018-06-21T07:18:30.603Z,23.93
2018-06-21T07:19:30.537Z,23.85
2018-06-21T07:20:30.482Z,23.75
2018-06-21T07:21:30.404Z,23.75
2018-06-21T07:22:30.333Z,23.85
2018-06-21T07:23:30.265Z,23.89
2018-06-21T07:24:30.197Z,24.05
2018-06-21T07:25:30.130Z,24.12
2018-06-21T07:26:30.063Z,24.20
2018-06-21T07:27:29.994Z,24.20
2018-06-21T07:28:29.961Z,24.32
2018-06-21T07:29:29.859Z,24.42
2018-06-21T07:30:29.792Z,24.27
2018-06-21T07:31:29.724Z,24.47
2018-06-21T07:32:29.656Z,24.47
2018-06-21T07:33:29.635Z,24.53
2018-06-21T07:34:29.523Z,24.44
2018-06-21T07:35:29.456Z,24.32
2018-06-21T07:36:29.388Z,24.34
2018-06-21T07:37:29.321Z,24.08
2018-06-21T07:38:29.253Z,24.17
2018-06-21T07:39:29.190Z,24.17
2018-06-21T07:40:29.118Z,24.16
2018-06-21T07:41:29.051Z,24.47
2018-06-21T07:42:28.984Z,24.64
2018-06-21T07:43:28.918Z,24.66
2018-06-21T07:44:28.851Z,24.56
2018-06-21T07:45:28.796Z,24.38
2018-06-21T07:46:28.726Z,24.45
2018-06-21T07:47:28.651Z,24.52
2018-06-21T07:48:28.581Z,24.53
2018-06-21T07:49:28.515Z,24.56
2018-06-21T07:50:28.448Z,24.50
2018-06-21T07:51:28.382Z,24.50
2018-06-21T07:52:28.315Z,24.48
2018-06-21T07:53:28.246Z,24.56
2018-06-21T07:54:28.179Z,24.64
2018-06-21T07:55:28.112Z,24.62
2018-06-21T07:56:28.050Z,24.83
2018-06-21T07:57:27.982Z,24.86
2018-06-21T07:58:27.913Z,24.91
2018-06-21T07:59:27.847Z,24.78
2018-06-21T08:00:27.778Z,24.82
2018-06-21T08:01:27.710Z,24.64
2018-06-21T08:02:27.646Z,24.48
2018-06-21T08:03:27.577Z,24.48
2018-06-21T08:04:27.511Z,24.45
2018-06-21T08:05:27.445Z,24.23
2018-06-21T08:06:27.377Z,24.22
2018-06-21T08:07:27.311Z,24.22
2018-06-21T08:08:27.243Z,24.15
2018-06-21T08:09:27.178Z,24.20
2018-06-21T08:10:27.110Z,24.37
2018-06-21T08:11:27.043Z,24.41
2018-06-21T08:12:26.976Z,24.50
2018-06-21T08:13:26.911Z,24.57
2018-06-21T08:14:26.847Z,24.63
2018-06-21T08:15:26.775Z,24.71
2018-06-21T08:16:26.709Z,24.69
2018-06-21T08:17:26.643Z,24.45
2018-06-21T08:18:26.575Z,24.35
2018-06-21T08:19:26.508Z,24.29
2018-06-21T08:20:26.442Z,24.44
2018-06-21T08:21:26.375Z,24.22
2018-06-21T08:22:26.309Z,24.15
2018-06-21T08:23:26.243Z,24.05
2018-06-21T08:24:26.177Z,24.11
2018-06-21T08:25:26.109Z,24.11
2018-06-21T08:26:26.042Z,24.01
2018-06-21T08:27:25.976Z,23.98
2018-06-21T08:28:25.907Z,23.98
2018-06-21T08:29:25.847Z,24.08
2018-06-21T08:30:25.778Z,24.23
2018-06-21T08:31:25.707Z,24.27
2018-06-21T08:32:25.639Z,24.41
2018-06-21T08:33:25.573Z,24.40
2018-06-21T08:34:25.512Z,24.42
2018-06-21T08:35:25.440Z,24.48
2018-06-21T08:36:25.372Z,24.41
2018-06-21T08:37:25.305Z,24.16
2018-06-21T08:38:25.238Z,24.02
2018-06-21T08:39:25.173Z,23.98
2018-06-21T08:40:25.105Z,24.07
2018-06-21T08:41:25.037Z,24.07
2018-06-21T08:42:24.970Z,24.08
2018-06-21T08:43:24.903Z,24.04
2018-06-21T08:44:24.839Z,24.22
2018-06-21T08:45:24.770Z,24.19
2018-06-21T08:46:24.702Z,24.27
2018-06-21T08:47:24.637Z,24.23
2018-06-21T08:48:24.568Z,24.16
2018-06-21T08:49:24.502Z,24.08
2018-06-21T08:50:24.435Z,24.07
2018-06-21T08:51:24.367Z,24.27
2018-06-21T08:52:24.301Z,24.37
2018-06-21T08:53:24.234Z,24.22
2018-06-21T08:54:24.167Z,24.30
2018-06-21T08:55:24.100Z,24.25
2018-06-21T08:56:24.035Z,24.23
2018-06-21T08:57:23.968Z,24.20
2018-06-21T08:58:23.966Z,24.40
2018-06-21T08:59:23.832Z,24.53
2018-06-21T09:00:23.766Z,24.52
2018-06-21T09:01:23.702Z,24.60
2018-06-21T09:02:23.632Z,24.54
2018-06-21T09:03:23.566Z,24.48
2018-06-21T09:04:23.498Z,24.45
2018-06-21T09:05:23.436Z,24.42
2018-06-21T09:06:23.366Z,24.19
2018-06-21T09:07:23.299Z,24.25
2018-06-21T09:08:23.232Z,24.34
2018-06-21T09:09:23.165Z,24.17
2018-06-21T09:10:23.099Z,24.20
2018-06-21T09:11:23.032Z,24.19
2018-06-21T09:12:22.964Z,24.29
2018-06-21T09:13:22.899Z,24.38
2018-06-21T09:14:22.831Z,24.64
2018-06-21T09:15:22.775Z,24.63
2018-06-21T09:16:22.700Z,24.60
2018-06-21T09:17:22.634Z,24.79
2018-06-21T09:18:22.564Z,24.83
2018-06-21T09:19:22.497Z,24.95
2018-06-21T09:20:22.430Z,24.91
2018-06-21T09:21:22.366Z,24.85
2018-06-21T09:22:22.298Z,24.76
2018-06-21T09:23:22.231Z,24.90
2018-06-21T09:24:22.163Z,25.09
2018-06-21T09:25:22.097Z,25.09
2018-06-21T09:26:22.032Z,25.15
2018-06-21T09:27:21.965Z,25.22
2018-06-21T09:28:21.898Z,25.28
2018-06-21T09:29:21.831Z,25.45
2018-06-21T09:30:21.765Z,25.41
2018-06-21T09:31:21.700Z,25.49
2018-06-21T09:32:21.633Z,25.60
2018-06-21T09:33:21.586Z,25.65
2018-06-21T09:34:21.501Z,25.60
2018-06-21T09:35:21.435Z,25.57
2018-06-21T09:36:21.369Z,25.50
2018-06-21T09:37:21.302Z,25.38
2018-06-21T09:38:21.237Z,25.40
2018-06-21T09:39:21.170Z,25.37
2018-06-21T09:40:21.103Z,25.31
2018-06-21T09:41:21.037Z,25.23
2018-06-21T09:42:20.971Z,25.16
2018-06-21T09:43:20.905Z,25.08
2018-06-21T09:44:20.842Z,25.08
2018-06-21T09:45:20.772Z,25.10
2018-06-21T09:46:20.707Z,25.15
2018-06-21T09:47:20.642Z,25.22
2018-06-21T09:48:20.573Z,25.30
2018-06-21T09:49:20.509Z,25.30
2018-06-21T09:50:20.442Z,25.34
2018-06-21T09:51:20.376Z,25.35
2018-06-21T09:52:20.309Z,25.45
2018-06-21T09:53:20.243Z,25.31
2018-06-21T09:54:20.176Z,25.22
2018-06-21T09:55:20.112Z,25.09
2018-06-21T09:56:20.046Z,24.97
2018-06-21T09:57:19.979Z,24.83
2018-06-21T09:58:19.914Z,24.79
2018-06-21T09:59:19.850Z,24.66
2018-06-21T10:00:19.780Z,24.73
2018-06-21T10:01:19.715Z,24.67
2018-06-21T10:02:19.647Z,24.69
2018-06-21T10:03:19.582Z,24.78
2018-06-21T10:04:19.515Z,24.57
2018-06-21T10:05:19.449Z,24.82
2018-06-21T10:06:19.386Z,24.86
2018-06-21T10:07:19.317Z,24.95
2018-06-21T10:08:19.250Z,25.17
2018-06-21T10:09:19.182Z,25.23
2018-06-21T10:10:19.117Z,25.20
2018-06-21T10:11:19.052Z,25.40
2018-06-21T10:12:18.986Z,25.40
2018-06-21T10:13:18.917Z,25.19
2018-06-21T10:14:18.851Z,25.31
2018-06-21T10:15:18.785Z,25.20
2018-06-21T10:16:18.718Z,25.27
2018-06-21T10:17:18.652Z,25.19
2018-06-21T10:18:18.587Z,25.28
2018-06-21T10:19:18.520Z,25.25
2018-06-21T10:20:18.453Z,25.30
2018-06-21T10:21:18.388Z,25.20
2018-06-21T10:22:18.321Z,25.01
2018-06-21T10:23:18.255Z,25.16
2018-06-21T10:24:18.192Z,25.28
2018-06-21T10:25:18.122Z,25.34
2018-06-21T10:26:18.056Z,25.56
2018-06-21T10:27:17.990Z,25.59
2018-06-21T10:28:17.922Z,25.57
2018-06-21T10:29:17.858Z,25.56
2018-06-21T10:30:17.791Z,25.50
2018-06-21T10:31:17.725Z,25.34
2018-06-21T10:32:17.658Z,25.28
2018-06-21T10:33:17.593Z,25.41
2018-06-21T10:34:17.526Z,25.38
2018-06-21T10:35:17.460Z,25.27
2018-06-21T10:36:17.396Z,25.35
2018-06-21T10:37:17.329Z,25.52
2018-06-21T10:38:17.261Z,25.65
2018-06-21T10:39:17.196Z,25.74
2018-06-21T10:40:17.130Z,25.74
2018-06-21T10:41:17.065Z,25.84
2018-06-21T10:42:17.002Z,25.94
2018-06-21T10:43:16.936Z,26.32
2018-06-21T10:44:16.864Z,26.57
2018-06-21T10:45:16.799Z,26.61
2018-06-21T10:46:16.733Z,26.35
2018-06-21T10:47:16.668Z,26.30
2018-06-21T10:48:16.601Z,26.04
2018-06-21T10:49:16.546Z,26.05
2018-06-21T10:50:16.471Z,26.09
2018-06-21T10:51:16.405Z,26.25
2018-06-21T10:52:16.337Z,26.35
2018-06-21T10:53:16.273Z,26.34
2018-06-21T10:54:16.207Z,26.47
2018-06-21T10:55:16.145Z,26.31
2018-06-21T10:56:16.076Z,26.07
2018-06-21T10:57:16.010Z,26.04
2018-06-21T10:58:15.945Z,25.72
2018-06-21T10:59:15.879Z,25.79
2018-06-21T11:00:15.813Z,25.77
2018-06-21T11:01:15.749Z,25.64
2018-06-21T11:02:15.682Z,25.60
2018-06-21T11:03:15.648Z,25.19
2018-06-21T11:04:15.550Z,24.80
2018-06-21T11:05:15.490Z,24.22
2018-06-21T11:06:15.420Z,23.65
2018-06-21T11:07:15.354Z,23.26
2018-06-21T11:08:15.288Z,23.23
2018-06-21T11:09:15.221Z,23.14
2018-06-21T11:10:15.156Z,22.94
2018-06-21T11:11:15.089Z,22.75
2018-06-21T11:12:15.022Z,22.78
2018-06-21T11:13:14.955Z,22.71
2018-06-21T11:14:14.887Z,22.65
2018-06-21T11:15:14.822Z,22.54
2018-06-21T11:16:14.754Z,22.42
2018-06-21T11:17:14.687Z,22.37
2018-06-21T11:18:14.620Z,22.41
2018-06-21T11:19:14.552Z,22.50
2018-06-21T11:20:14.489Z,22.32
2018-06-21T11:21:14.416Z,22.34
2018-06-21T11:22:14.349Z,22.42
2018-06-21T11:23:14.281Z,22.52
2018-06-21T11:24:14.214Z,22.69
2018-06-21T11:25:14.147Z,22.75
2018-06-21T11:26:14.080Z,22.74
2018-06-21T11:27:14.010Z,22.89
2018-06-21T11:28:13.942Z,22.89
2018-06-21T11:29:13.874Z,22.74
2018-06-21T11:30:13.808Z,22.83
2018-06-21T11:31:13.740Z,22.81
2018-06-21T11:32:13.672Z,22.79
2018-06-21T11:33:13.605Z,22.81
2018-06-21T11:34:13.537Z,22.69
2018-06-21T11:35:13.469Z,22.52
2018-06-21T11:36:13.404Z,22.49
2018-06-21T11:37:13.334Z,22.57
2018-06-21T11:38:13.307Z,22.59
2018-06-21T11:39:13.199Z,23.17
2018-06-21T11:40:13.130Z,23.50
2018-06-21T11:41:13.062Z,23.98
2018-06-21T11:42:12.996Z,24.08
2018-06-21T11:43:12.929Z,23.98
2018-06-21T11:44:12.862Z,23.71
2018-06-21T11:45:12.798Z,23.58
2018-06-21T11:46:12.730Z,23.49
2018-06-21T11:47:12.663Z,23.37
2018-06-21T11:48:12.597Z,23.49
2018-06-21T11:49:12.531Z,23.42
2018-06-21T11:50:12.464Z,23.45
2018-06-21T11:51:12.399Z,23.04
2018-06-21T11:52:12.372Z,22.69
2018-06-21T11:53:12.264Z,22.59
2018-06-21T11:54:12.198Z,22.35
2018-06-21T11:55:12.131Z,22.08
2018-06-21T11:56:12.065Z,21.85
2018-06-21T11:57:11.999Z,21.82
2018-06-21T11:58:11.931Z,21.92
2018-06-21T11:59:11.864Z,21.91
2018-06-21T12:00:11.798Z,21.94
2018-06-21T12:01:11.730Z,21.89
2018-06-21T12:02:11.663Z,21.74
2018-06-21T12:03:11.596Z,21.63
2018-06-21T12:04:11.528Z,21.46
2018-06-21T12:05:11.461Z,21.27
2018-06-21T12:06:11.393Z,21.17
2018-06-21T12:07:11.325Z,20.90
2018-06-21T12:08:11.257Z,20.79
2018-06-21T12:09:11.190Z,20.72
2018-06-21T12:10:11.122Z,20.65
2018-06-21T12:11:11.053Z,20.57
2018-06-21T12:12:10.986Z,20.53
2018-06-21T12:13:10.919Z,20.43
2018-06-21T12:14:10.878Z,20.40
2018-06-21T12:15:10.780Z,20.50
2018-06-21T12:16:10.712Z,20.34
2018-06-21T12:17:10.643Z,20.31
2018-06-21T12:18:10.575Z,20.30
2018-06-21T12:19:10.506Z,20.30
2018-06-21T12:20:10.437Z,20.42
2018-06-21T12:21:10.368Z,20.53
2018-06-21T12:22:10.301Z,20.56
2018-06-21T12:23:10.231Z,20.61
2018-06-21T12:24:10.162Z,20.61
2018-06-21T12:25:10.094Z,20.49
2018-06-21T12:26:10.051Z,20.72
2018-06-21T12:27:09.956Z,20.80
2018-06-21T12:28:09.886Z,20.75
2018-06-21T12:29:09.818Z,20.76
2018-06-21T12:30:09.754Z,20.82
2018-06-21T12:31:09.681Z,20.82
2018-06-21T12:32:09.703Z,20.90
2018-06-21T12:33:09.543Z,20.90
2018-06-21T12:34:09.476Z,21.19
2018-06-21T12:35:09.407Z,21.30
2018-06-21T12:36:09.345Z,21.35
2018-06-21T12:37:09.269Z,21.56
2018-06-21T12:38:09.236Z,21.76
2018-06-21T12:39:09.133Z,21.95
2018-06-21T12:40:09.064Z,22.30
2018-06-21T12:41:08.996Z,22.35
2018-06-21T12:42:08.935Z,22.34
2018-06-21T12:43:08.863Z,22.84
2018-06-21T12:44:08.791Z,23.42
2018-06-21T12:45:08.725Z,24.26
2018-06-21T12:46:08.658Z,25.02
2018-06-21T12:47:08.590Z,25.04
2018-06-21T12:48:08.526Z,24.88
2018-06-21T12:49:08.459Z,25.59
2018-06-21T12:50:08.393Z,26.07
2018-06-21T12:51:08.329Z,26.08